National Weather Service Raw Text Product

Displaying AFOS PIL: TAFOTM Received: 2018-02-14 11:20 UTC


760 
FTUS43 KDMX 141120
TAFOTM
TAF
KOTM 141120Z 1412/1512 20009KT P6SM SCT200
     FM142000 22010KT P6SM BKN200
     FM150600 19005KT 4SM BR BKN150
     FM151000 18005KT 2SM BR SCT010 BKN100=